createdAt,value
2019-03-18T00:09:56.321Z,7.26
2019-03-18T00:20:01.209Z,7.16
2019-03-18T00:30:16.789Z,6.95
2019-03-18T00:40:21.836Z,6.77
2019-03-18T00:50:26.843Z,6.64
2019-03-18T01:00:31.923Z,6.64
2019-03-18T01:10:36.817Z,6.51
2019-03-18T01:20:41.722Z,6.57
2019-03-18T01:30:46.611Z,6.11
2019-03-18T01:40:51.485Z,5.99
2019-03-18T01:50:56.600Z,6.09
2019-03-18T02:01:01.686Z,6.01
2019-03-18T02:11:07.714Z,5.74
2019-03-18T02:21:13.739Z,5.63
2019-03-18T02:31:18.721Z,5.59
2019-03-18T02:41:23.617Z,5.68
2019-03-18T02:51:28.602Z,5.63
2019-03-18T03:01:33.718Z,5.63
2019-03-18T03:11:38.626Z,5.66
2019-03-18T03:21:43.590Z,5.58
2019-03-18T03:31:48.485Z,5.65
2019-03-18T03:41:53.482Z,5.53
2019-03-18T03:51:58.473Z,5.58
2019-03-18T04:02:03.491Z,5.59
2019-03-18T04:12:08.359Z,5.59
2019-03-18T04:22:13.334Z,5.59
2019-03-18T04:32:18.225Z,5.68
2019-03-18T04:42:23.127Z,5.74
2019-03-18T04:52:28.004Z,5.78
2019-03-18T05:02:32.998Z,5.73
2019-03-18T05:12:37.888Z,5.65
2019-03-18T05:22:42.867Z,5.92
2019-03-18T05:32:47.788Z,5.79
2019-03-18T05:42:52.673Z,5.89
2019-03-18T05:52:57.567Z,5.76
2019-03-18T06:03:02.664Z,5.69
2019-03-18T06:13:07.539Z,5.74
2019-03-18T06:23:12.434Z,5.61
2019-03-18T06:33:17.338Z,5.95
2019-03-18T06:43:22.426Z,6.36
2019-03-18T06:53:27.341Z,6.52
2019-03-18T07:03:32.244Z,6.90
2019-03-18T07:13:37.210Z,7.46
2019-03-18T07:23:42.203Z,7.75
2019-03-18T07:33:47.092Z,7.75
2019-03-18T07:43:51.990Z,7.89
2019-03-18T07:53:56.879Z,8.08
2019-03-18T08:04:02.087Z,8.04
2019-03-18T08:14:07.029Z,8.42
2019-03-18T08:24:12.076Z,8.07
2019-03-18T08:34:17.158Z,7.94
2019-03-18T08:44:22.052Z,6.15
2019-03-18T08:54:30.034Z,5.77
2019-03-18T09:04:35.115Z,5.97
2019-03-18T09:14:40.103Z,5.86
2019-03-18T09:24:45.094Z,5.52
2019-03-18T09:34:50.086Z,5.49
2019-03-18T09:44:55.087Z,5.61
2019-03-18T09:55:00.363Z,5.81
2019-03-18T10:05:06.719Z,6.15
2019-03-18T10:25:42.176Z,6.59
2019-03-18T10:35:47.073Z,6.85
2019-03-18T10:45:52.164Z,7.46
2019-03-18T10:56:07.172Z,12.45
2019-03-18T11:06:03.838Z,11.94
2019-03-18T11:16:08.784Z,11.14
2019-03-18T11:26:14.814Z,11.72
2019-03-18T11:36:19.694Z,11.76
2019-03-18T11:46:24.582Z,10.70
2019-03-18T11:56:29.480Z,10.59
2019-03-18T12:06:34.364Z,11.56
2019-03-18T12:16:39.358Z,10.38
2019-03-18T12:26:44.260Z,10.98
2019-03-18T12:36:49.253Z,11.45
2019-03-18T12:46:54.341Z,12.20
2019-03-18T12:56:59.351Z,11.20
2019-03-18T13:07:05.349Z,11.20
2019-03-18T13:17:10.346Z,11.34
2019-03-18T13:27:15.338Z,10.78
2019-03-18T13:37:20.337Z,10.47
2019-03-18T13:47:46.029Z,10.42
2019-03-18T13:57:50.910Z,9.38
2019-03-18T14:08:00.879Z,9.56
2019-03-18T14:18:02.736Z,9.09
2019-03-18T14:28:10.097Z,9.88
2019-03-18T14:38:15.038Z,9.84
2019-03-18T14:48:19.985Z,9.49
2019-03-18T14:58:25.098Z,9.31
2019-03-18T15:08:30.331Z,9.22
2019-03-18T15:18:35.494Z,9.08
2019-03-18T15:28:40.526Z,8.79
2019-03-18T15:38:46.628Z,8.88
2019-03-18T15:48:51.975Z,8.62
2019-03-18T15:58:57.142Z,8.35
2019-03-18T16:09:02.760Z,7.94
2019-03-18T16:19:08.066Z,7.94
2019-03-18T16:29:13.459Z,7.77
2019-03-18T16:39:18.869Z,7.50
2019-03-18T16:49:24.149Z,7.27
2019-03-18T16:59:29.662Z,7.11
2019-03-18T17:09:35.043Z,6.85
2019-03-18T17:19:40.379Z,6.69
2019-03-18T17:29:45.830Z,6.49
2019-03-18T17:39:51.323Z,6.28
2019-03-18T17:49:56.560Z,6.15
2019-03-18T18:00:01.978Z,6.20
2019-03-18T18:10:10.638Z,6.08
2019-03-18T18:20:16.451Z,6.01
2019-03-18T18:30:21.959Z,5.94
2019-03-18T18:40:29.523Z,5.74
2019-03-18T18:50:34.939Z,5.65
2019-03-18T19:00:40.319Z,5.55
2019-03-18T19:10:45.873Z,5.36
2019-03-18T19:20:51.565Z,4.99
2019-03-18T19:30:56.980Z,4.99
2019-03-18T19:41:02.444Z,4.92
2019-03-18T19:51:07.981Z,4.75
2019-03-18T20:01:13.406Z,4.62
2019-03-18T20:11:18.700Z,4.52
2019-03-18T20:21:23.994Z,4.43
2019-03-18T20:31:29.258Z,4.43
2019-03-18T20:41:34.434Z,4.38
2019-03-18T20:51:39.923Z,4.37
2019-03-18T21:01:45.172Z,4.27
2019-03-18T21:11:50.568Z,4.12
2019-03-18T21:21:55.966Z,4.08
2019-03-18T21:32:01.433Z,4.18
2019-03-18T21:42:06.713Z,4.15
2019-03-18T21:52:11.863Z,4.04
2019-03-18T22:02:16.973Z,3.98
2019-03-18T22:12:22.223Z,3.84
2019-03-18T22:22:27.213Z,3.68
2019-03-18T22:32:32.097Z,3.43
2019-03-18T22:42:38.228Z,3.52
2019-03-18T22:52:43.219Z,3.39
2019-03-18T23:02:48.099Z,3.28
2019-03-18T23:12:53.204Z,3.27
2019-03-18T23:22:58.297Z,3.29
2019-03-18T23:33:03.299Z,3.31
2019-03-18T23:43:08.178Z,3.37
2019-03-18T23:53:15.891Z,3.30
